TimeMDT,TemperatureF,Dew PointF,Humidity,Sea Level PressureIn,VisibilityMPH,Wind Direction,Wind SpeedMPH,Gust SpeedMPH,PrecipitationIn,Events,Conditions,WindDirDegrees,DateUTC
12:51 AM,82.0,6.1,6,29.72,10.0,West,9.2,-,N/A,,Clear,270,2013-05-27 06:51:00
1:51 AM,81.0,7.0,6,29.73,10.0,West,6.9,-,N/A,,Clear,260,2013-05-27 07:51:00
2:51 AM,75.0,8.1,8,29.72,10.0,South,4.6,-,N/A,,Clear,170,2013-05-27 08:51:00
3:51 AM,75.9,8.1,7,29.71,10.0,West,9.2,-,N/A,,Clear,260,2013-05-27 09:51:00
4:51 AM,71.1,9.0,9,29.72,10.0,East,3.5,-,N/A,,Clear,80,2013-05-27 10:51:00
5:51 AM,66.9,12.0,12,29.74,10.0,Variable,3.5,-,N/A,,Clear,0,2013-05-27 11:51:00
6:51 AM,64.0,15.1,15,29.76,10.0,SSE,3.5,-,N/A,,Clear,150,2013-05-27 12:51:00
7:51 AM,73.9,15.1,11,29.75,10.0,SSW,4.6,-,N/A,,Clear,200,2013-05-27 13:51:00
8:51 AM,80.1,12.0,8,29.75,10.0,Variable,3.5,-,N/A,,Clear,0,2013-05-27 14:51:00
9:51 AM,84.0,12.9,7,29.74,10.0,West,11.5,-,N/A,,Scattered Clouds,270,2013-05-27 15:51:00
10:51 AM,87.1,14.0,7,29.73,10.0,WSW,15.0,21.9,N/A,,Scattered Clouds,240,2013-05-27 16:51:00
11:51 AM,88.0,14.0,6,29.71,10.0,WSW,6.9,-,N/A,,Scattered Clouds,240,2013-05-27 17:51:00
12:51 PM,91.0,12.9,6,29.69,10.0,WSW,15.0,-,N/A,,Scattered Clouds,240,2013-05-27 18:51:00
1:51 PM,91.9,10.9,5,29.67,10.0,WSW,12.7,19.6,N/A,,Scattered Clouds,240,2013-05-27 19:51:00
2:51 PM,93.0,7.0,4,29.65,10.0,WSW,10.4,20.7,N/A,,Scattered Clouds,240,2013-05-27 20:51:00
3:51 PM,91.9,9.0,5,29.63,10.0,SW,11.5,18.4,N/A,,Mostly Cloudy,230,2013-05-27 21:51:00
4:51 PM,91.0,9.0,5,29.62,10.0,West,12.7,20.7,N/A,,Mostly Cloudy,260,2013-05-27 22:51:00
5:51 PM,91.9,10.0,5,29.60,10.0,West,13.8,21.9,N/A,,Mostly Cloudy,270,2013-05-27 23:51:00
6:51 PM,91.0,14.0,6,29.60,10.0,West,11.5,19.6,N/A,,Mostly Cloudy,260,2013-05-28 00:51:00
7:51 PM,90.0,10.9,5,29.58,10.0,NW,8.1,-,N/A,,Mostly Cloudy,310,2013-05-28 01:51:00
8:51 PM,87.1,8.1,5,29.58,10.0,North,8.1,-,N/A,,Mostly Cloudy,360,2013-05-28 02:51:00
9:51 PM,82.9,6.1,5,29.59,10.0,North,4.6,-,N/A,,Mostly Cloudy,350,2013-05-28 03:51:00
10:51 PM,79.0,9.0,7,29.60,10.0,Calm,Calm,-,N/A,,Mostly Cloudy,0,2013-05-28 04:51:00
11:51 PM,75.9,14.0,10,29.60,10.0,South,6.9,-,N/A,,Mostly Cloudy,170,2013-05-28 05:51:00